Waddinxveen, Netherlands
Current Conditions -  °F | °C
As of 10:55 AM on Friday 24 Oct 2014 (Local Time) from EHRD Reporting Station
Light Rain Light Rain  
Wind Chill: 54°   Ceiling: 2100
Heat Index: 54°   Visibility: 2.4mi
Dew Point: 52°   Wind: 14mph
Humidity: 94%   Direction: 180°S
Pressure: 30.06"   Gusts: NA
Location:  52.05°N, 4.65°E
Report Text: EHRD 240855Z AUTO 18012KT 150V220 3900 -RA FEW009 SCT010SCT015CB BKN021 12/11 Q1018 RERA REDZ TEMPO 9999 BKN010
Loading
Personal Weather Stations






























Interactive Weather Map
Tropical Storm Tracking
New forecast layout! Learn more

10-Day Weather Forecast

Advertisements
Track Severe Weather on mobile